Time;durP1;ratioP1;P1;durP2;ratioP2;P2;SDS_P1;SDS_P2;PMS_P1;PMS_P2;Temp;Humidity;BMP_temperature;BMP_pressure;BME280_temperature;BME280_humidity;BME280_pressure;Samples;Min_cycle;Max_cycle;Signal;HPM_P1;HPM_P2
2022/01/15 00:01:13;;;;;;;45.00;15.13;;;2.80;69.00;;;;;;5032243;28;20523;-61
2022/01/15 00:03:40;;;;;;;47.43;14.03;;;2.80;68.90;;;;;;5032189;28;20452;-61
2022/01/15 00:06:06;;;;;;;42.70;15.70;;;2.80;69.40;;;;;;5032240;28;20461;-61
2022/01/15 00:08:34;;;;;;;40.87;14.90;;;2.90;69.60;;;;;;5032082;28;20507;-59
2022/01/15 00:11:01;;;;;;;36.90;14.43;;;2.90;69.30;;;;;;5031858;28;20469;-61
2022/01/15 00:13:28;;;;;;;41.87;14.13;;;2.90;68.50;;;;;;5032385;28;20468;-61
2022/01/15 00:16:04;;;;;;;38.53;13.73;;;2.90;68.50;;;;;;5032010;28;20460;-61
2022/01/15 00:18:42;;;;;;;44.20;15.33;;;2.90;66.90;;;;;;5032282;28;20453;-61
2022/01/15 00:21:09;;;;;;;39.47;15.80;;;2.90;66.90;;;;;;5031761;28;20559;-61
2022/01/15 00:23:37;;;;;;;43.40;13.93;;;2.90;65.00;;;;;;5032249;28;20214;-61
2022/01/15 00:26:04;;;;;;;43.00;14.33;;;2.90;65.80;;;;;;5031838;28;20441;-61
2022/01/15 00:28:31;;;;;;;41.13;14.50;;;2.90;64.60;;;;;;5032236;28;20461;-59
2022/01/15 00:30:58;;;;;;;38.93;13.27;;;2.80;62.50;;;;;;5032088;28;20465;-61
2022/01/15 00:33:29;;;;;;;36.40;13.27;;;2.80;61.80;;;;;;5032153;28;20449;-61
2022/01/15 00:35:57;;;;;;;37.77;14.57;;;2.70;59.90;;;;;;5032221;28;20849;-61
2022/01/15 00:38:23;;;;;;;39.63;14.23;;;2.80;62.70;;;;;;5031506;28;20502;-60
2022/01/15 00:40:51;;;;;;;43.07;14.27;;;2.90;63.70;;;;;;5031510;28;20465;-61
2022/01/15 00:43:19;;;;;;;42.53;14.37;;;2.90;64.00;;;;;;5031721;28;20453;-61
2022/01/15 00:45:45;;;;;;;43.57;15.83;;;2.80;62.90;;;;;;5031914;28;20532;-61
2022/01/15 00:48:12;;;;;;;42.70;14.97;;;2.80;63.40;;;;;;5031535;28;20484;-61
2022/01/15 00:50:39;;;;;;;42.77;14.87;;;2.80;65.00;;;;;;5031750;28;21071;-61
2022/01/15 00:53:06;;;;;;;42.00;15.10;;;2.90;66.60;;;;;;5031552;28;20957;-62
2022/01/15 00:55:32;;;;;;;38.73;15.00;;;2.90;66.90;;;;;;5031440;28;20591;-62
2022/01/15 00:58:00;;;;;;;36.13;13.63;;;3.00;67.80;;;;;;5031899;28;20454;-62
2022/01/15 01:00:28;;;;;;;34.47;14.67;;;3.00;66.80;;;;;;5031370;28;20465;-61
2022/01/15 01:02:55;;;;;;;43.67;14.67;;;3.00;64.70;;;;;;5031372;28;20456;-61
2022/01/15 01:05:22;;;;;;;34.73;12.67;;;3.00;61.90;;;;;;5031274;28;20967;-62
2022/01/15 01:07:50;;;;;;;34.87;14.43;;;2.90;61.90;;;;;;5031324;28;20484;-61
2022/01/15 01:10:43;;;;;;;44.63;15.17;;;3.00;62.70;;;;;;5031105;28;20481;-61
2022/01/15 01:13:28;;;;;;;36.30;15.07;;;3.00;63.50;;;;;;5031237;28;20544;-61
2022/01/15 01:22:01;;;;;;;33.43;14.40;;;3.10;60.00;;;;;;5031008;28;20812;-61
2022/01/15 01:24:19;;;;;;;35.30;13.17;;;3.10;55.80;;;;;;5034922;28;20467;-61
2022/01/15 01:26:52;;;;;;;36.80;13.93;;;3.10;52.90;;;;;;5034823;28;20481;-61
2022/01/15 01:29:30;;;;;;;37.47;14.43;;;3.10;51.50;;;;;;5036162;28;20452;-61
2022/01/15 01:32:02;;;;;;;31.30;14.33;;;3.10;49.70;;;;;;5035291;28;20449;-61
2022/01/15 01:34:31;;;;;;;35.00;14.10;;;2.90;46.20;;;;;;5015231;28;20460;-62
2022/01/15 01:37:04;;;;;;;37.87;14.90;;;3.00;46.30;;;;;;5015270;28;20500;-60
2022/01/15 01:39:39;;;;;;;36.50;14.70;;;3.00;46.10;;;;;;5015272;28;20515;-62
2022/01/15 01:42:13;;;;;;;32.67;14.23;;;3.00;45.70;;;;;;5015490;28;20449;-61
2022/01/15 01:44:59;;;;;;;38.97;14.97;;;3.10;45.80;;;;;;5015391;28;20445;-62
2022/01/15 01:47:37;;;;;;;30.30;13.30;;;3.00;44.40;;;;;;5014843;28;20570;-61
2022/01/15 01:50:04;;;;;;;34.77;14.47;;;2.90;40.70;;;;;;5015745;28;20477;-61
2022/01/15 01:52:31;;;;;;;31.53;14.73;;;2.80;39.60;;;;;;5016129;28;20855;-61
2022/01/15 01:54:58;;;;;;;36.13;14.70;;;2.80;41.60;;;;;;5015404;28;21022;-61
2022/01/15 01:57:25;;;;;;;33.17;14.37;;;2.90;44.80;;;;;;5015016;28;20453;-62
2022/01/15 01:59:53;;;;;;;32.70;14.03;;;2.90;46.40;;;;;;5015203;28;20853;-63
2022/01/15 02:02:20;;;;;;;33.50;14.07;;;2.90;47.20;;;;;;5014913;28;20481;-62
2022/01/15 02:04:46;;;;;;;35.23;14.60;;;3.00;49.00;;;;;;5015256;28;20500;-62
2022/01/15 02:07:14;;;;;;;35.93;14.70;;;3.10;49.70;;;;;;5014531;28;20477;-59
2022/01/15 02:09:41;;;;;;;29.30;12.70;;;3.00;48.20;;;;;;5014752;28;20473;-61
2022/01/15 02:12:08;;;;;;;30.57;12.50;;;2.90;45.20;;;;;;5014536;28;20516;-61
2022/01/15 02:14:36;;;;;;;34.50;13.50;;;2.90;46.60;;;;;;5014430;28;20515;-61
2022/01/15 02:17:04;;;;;;;32.17;12.63;;;2.90;46.20;;;;;;5014194;28;20999;-61
2022/01/15 02:19:33;;;;;;;32.90;14.00;;;2.90;45.70;;;;;;5014690;28;20878;-61
2022/01/15 02:24:45;;;;;;;30.93;13.33;;;2.90;48.40;;;;;;5014904;28;20440;-61
2022/01/15 02:27:12;;;;;;;29.77;13.23;;;3.00;50.00;;;;;;5014158;28;20486;-61
2022/01/15 02:29:39;;;;;;;30.33;13.80;;;3.10;49.60;;;;;;5014678;28;20470;-61
2022/01/15 02:32:06;;;;;;;26.90;13.37;;;3.00;47.50;;;;;;5014582;28;20442;-60
2022/01/15 02:34:34;;;;;;;25.83;11.10;;;2.90;42.80;;;;;;5014690;28;20516;-60
2022/01/15 02:37:01;;;;;;;29.00;12.80;;;2.90;44.20;;;;;;5014877;28;20458;-60
2022/01/15 02:39:28;;;;;;;30.10;13.97;;;3.00;47.80;;;;;;5014256;28;20496;-60
2022/01/15 02:41:55;;;;;;;28.57;13.13;;;3.00;49.60;;;;;;5014299;28;20458;-60
2022/01/15 02:44:22;;;;;;;25.53;12.07;;;3.10;50.70;;;;;;5014678;28;20449;-60
2022/01/15 02:49:32;;;;;;;27.33;11.90;;;3.10;50.60;;;;;;5014749;28;20453;-60
2022/01/15 02:52:00;;;;;;;26.07;11.10;;;3.20;49.50;;;;;;5014420;28;20442;-60
2022/01/15 02:54:27;;;;;;;22.83;11.03;;;3.20;50.20;;;;;;5014285;28;20472;-61
2022/01/15 02:56:54;;;;;;;24.77;11.93;;;3.10;47.10;;;;;;5013889;28;20561;-60
2022/01/15 02:59:23;;;;;;;22.47;11.27;;;3.10;47.60;;;;;;5014456;28;20450;-59
2022/01/15 03:01:49;;;;;;;28.43;12.27;;;3.10;46.90;;;;;;5013973;28;20454;-60
2022/01/15 03:04:17;;;;;;;25.00;12.07;;;3.00;46.20;;;;;;5013929;28;20450;-60
2022/01/15 03:06:43;;;;;;;27.27;13.03;;;3.10;48.50;;;;;;5013521;28;20207;-60
2022/01/15 03:09:11;;;;;;;28.20;12.70;;;3.20;51.20;;;;;;5013979;28;20525;-60
2022/01/15 03:11:40;;;;;;;23.90;12.40;;;3.30;51.70;;;;;;5013742;28;20215;-60
2022/01/15 03:14:07;;;;;;;23.80;11.63;;;3.30;51.30;;;;;;5013505;28;20505;-61
2022/01/15 03:16:34;;;;;;;23.60;11.37;;;3.30;50.60;;;;;;5013560;28;20207;-61
2022/01/15 03:19:00;;;;;;;24.70;12.63;;;3.30;48.00;;;;;;5013634;28;20454;-61
2022/01/15 03:21:27;;;;;;;20.97;11.17;;;3.30;47.70;;;;;;5013981;28;20226;-61
2022/01/15 03:23:53;;;;;;;23.53;12.33;;;3.40;47.10;;;;;;5013589;28;20207;-60
2022/01/15 03:26:21;;;;;;;21.93;11.27;;;3.40;45.60;;;;;;5013541;28;20207;-60
2022/01/15 03:28:48;;;;;;;21.83;10.67;;;3.10;35.30;;;;;;5013404;28;20231;-61
2022/01/15 03:31:15;;;;;;;24.23;10.63;;;3.20;36.40;;;;;;5013163;28;20470;-60
2022/01/15 03:33:41;;;;;;;21.97;10.63;;;3.20;37.50;;;;;;5013285;28;20453;-60
2022/01/15 03:36:08;;;;;;;22.97;10.60;;;3.20;38.50;;;;;;5012901;28;20459;-61
2022/01/15 03:38:35;;;;;;;20.33;9.70;;;3.20;38.10;;;;;;5013670;28;20446;-61
2022/01/15 03:41:02;;;;;;;18.30;9.90;;;3.20;36.20;;;;;;5013095;28;20473;-61
2022/01/15 03:43:30;;;;;;;18.33;10.27;;;3.10;34.80;;;;;;5013267;28;20870;-61
2022/01/15 03:45:57;;;;;;;20.87;10.53;;;3.10;35.70;;;;;;5012456;28;20454;-60
2022/01/15 03:48:24;;;;;;;23.47;11.20;;;3.00;34.80;;;;;;5012687;28;20509;-60
2022/01/15 03:50:51;;;;;;;23.67;11.00;;;3.00;36.50;;;;;;5013054;28;20913;-61
2022/01/15 03:53:20;;;;;;;16.20;8.30;;;3.10;38.90;;;;;;5012797;28;20449;-61
2022/01/15 03:55:47;;;;;;;19.37;8.37;;;3.10;39.70;;;;;;5012977;28;20766;-61
2022/01/15 03:58:13;;;;;;;15.63;7.37;;;3.10;39.20;;;;;;5012505;28;20944;-61
2022/01/15 04:00:42;;;;;;;14.33;7.73;;;2.90;34.90;;;;;;5012631;28;20909;-61
2022/01/15 04:03:08;;;;;;;14.57;7.13;;;2.90;36.60;;;;;;5012284;28;20937;-60
2022/01/15 04:05:35;;;;;;;18.77;8.10;;;3.00;40.50;;;;;;5012879;28;20450;-57
2022/01/15 04:08:02;;;;;;;15.13;8.17;;;2.80;40.40;;;;;;5012592;28;20528;-60
2022/01/15 04:10:28;;;;;;;17.53;6.93;;;2.80;42.10;;;;;;5012613;28;20473;-61
2022/01/15 04:12:55;;;;;;;16.67;7.27;;;2.80;46.00;;;;;;5012617;28;20847;-61
2022/01/15 04:15:22;;;;;;;18.93;7.40;;;2.90;47.60;;;;;;5012372;28;20462;-61
2022/01/15 04:17:50;;;;;;;21.50;7.87;;;2.80;47.50;;;;;;5012272;28;20453;-61
2022/01/15 04:20:20;;;;;;;21.73;7.80;;;2.90;48.90;;;;;;5012270;28;20500;-63
2022/01/15 04:22:48;;;;;;;15.53;7.60;;;2.70;45.30;;;;;;5012329;28;20457;-61
2022/01/15 04:25:15;;;;;;;15.47;6.87;;;2.60;47.70;;;;;;5012181;28;20971;-60
2022/01/15 04:27:44;;;;;;;16.57;7.77;;;2.60;50.80;;;;;;5012045;28;20481;-60
2022/01/15 04:30:12;;;;;;;17.70;8.17;;;2.60;52.30;;;;;;5012072;28;20512;-59
2022/01/15 04:32:39;;;;;;;19.50;8.87;;;2.70;55.70;;;;;;5011947;28;20486;-60
2022/01/15 04:35:09;;;;;;;16.40;8.50;;;2.60;55.00;;;;;;5012236;28;20450;-59
2022/01/15 04:37:39;;;;;;;22.73;9.77;;;2.50;54.60;;;;;;5011991;28;20496;-60
2022/01/15 04:40:07;;;;;;;20.17;8.90;;;2.50;55.90;;;;;;5011976;28;20564;-61
2022/01/15 04:42:34;;;;;;;17.53;8.70;;;2.50;58.50;;;;;;5011735;28;20449;-61
2022/01/15 04:45:03;;;;;;;19.60;8.97;;;2.50;59.20;;;;;;5012220;28;20457;-61
2022/01/15 04:47:30;;;;;;;21.00;9.07;;;2.50;60.40;;;;;;5011816;28;20528;-60
2022/01/15 04:49:58;;;;;;;20.37;8.53;;;2.50;61.60;;;;;;5012007;28;20956;-61
2022/01/15 04:52:26;;;;;;;21.83;10.40;;;2.50;62.70;;;;;;5012332;28;20446;-61
2022/01/15 04:54:53;;;;;;;27.20;10.50;;;2.40;62.90;;;;;;5011779;28;20458;-60
2022/01/15 04:57:20;;;;;;;21.40;10.00;;;2.50;65.00;;;;;;5011034;28;20450;-61
2022/01/15 04:59:46;;;;;;;29.37;14.10;;;2.40;64.40;;;;;;5011826;28;20470;-61
2022/01/15 05:02:13;;;;;;;25.63;10.60;;;2.40;67.10;;;;;;5011913;28;20508;-61
2022/01/15 05:04:40;;;;;;;24.30;10.17;;;2.40;69.10;;;;;;5012017;28;20450;-61
2022/01/15 05:07:06;;;;;;;24.63;11.33;;;2.40;69.60;;;;;;5012031;28;20515;-61
2022/01/15 05:09:34;;;;;;;22.43;10.33;;;2.40;69.60;;;;;;5011946;28;20490;-61
2022/01/15 05:12:09;;;;;;;26.43;10.87;;;2.40;70.20;;;;;;5011840;28;20454;-62
2022/01/15 05:14:37;;;;;;;25.10;11.27;;;2.40;70.70;;;;;;5012058;28;20465;-61
2022/01/15 05:17:04;;;;;;;20.40;9.43;;;2.40;73.40;;;;;;5011743;28;20862;-61
2022/01/15 05:19:31;;;;;;;21.20;11.43;;;2.50;74.90;;;;;;5011891;28;20474;-61
2022/01/15 05:21:58;;;;;;;22.50;10.73;;;2.50;75.40;;;;;;5012165;28;20450;-61
2022/01/15 05:24:26;;;;;;;24.80;10.10;;;2.40;74.00;;;;;;5012076;28;20458;-61
2022/01/15 05:26:54;;;;;;;22.53;10.23;;;2.40;72.20;;;;;;5011929;28;20458;-61
2022/01/15 05:29:21;;;;;;;24.07;10.67;;;2.30;71.60;;;;;;5012014;28;20536;-61
2022/01/15 05:31:47;;;;;;;19.37;9.00;;;2.30;72.20;;;;;;5012396;28;20450;-59
2022/01/15 05:34:14;;;;;;;21.93;9.50;;;2.20;70.80;;;;;;5029040;28;20862;-61
2022/01/15 05:36:41;;;;;;;26.90;9.43;;;2.30;71.40;;;;;;5031664;28;20456;-61
2022/01/15 05:39:08;;;;;;;19.97;9.07;;;2.30;72.10;;;;;;5031911;28;20452;-61
2022/01/15 05:41:35;;;;;;;15.27;8.37;;;2.30;69.60;;;;;;5032052;28;20809;-61
2022/01/15 05:44:04;;;;;;;19.73;7.53;;;2.30;68.50;;;;;;5031728;28;20579;-61
2022/01/15 05:46:31;;;;;;;20.50;8.10;;;2.20;64.80;;;;;;5031758;28;20455;-61
2022/01/15 05:48:58;;;;;;;38.53;8.50;;;2.20;63.90;;;;;;5031361;28;20871;-61
2022/01/15 05:51:29;;;;;;;24.63;8.50;;;2.30;63.00;;;;;;5031029;28;20523;-61
2022/01/15 05:53:56;;;;;;;21.20;7.97;;;2.20;59.90;;;;;;5031435;28;20456;-60
2022/01/15 05:56:22;;;;;;;26.17;8.67;;;2.30;58.60;;;;;;5030961;28;20449;-60
2022/01/15 05:58:49;;;;;;;17.17;8.53;;;2.30;56.90;;;;;;5031163;28;20441;-61
2022/01/15 06:01:18;;;;;;;17.70;8.60;;;2.30;56.10;;;;;;5031008;28;20473;-61
2022/01/15 06:03:45;;;;;;;20.63;8.03;;;2.30;55.00;;;;;;5031053;28;20448;-61
2022/01/15 06:06:12;;;;;;;17.37;8.00;;;2.20;53.30;;;;;;5031359;28;21098;-60
2022/01/15 06:08:38;;;;;;;19.70;7.80;;;2.20;51.50;;;;;;5031986;28;21072;-61
2022/01/15 06:11:05;;;;;;;20.37;7.33;;;2.10;50.00;;;;;;5034871;28;20477;-61
2022/01/15 06:13:32;;;;;;;25.53;8.33;;;1.90;47.60;;;;;;5034368;28;20484;-61
2022/01/15 06:15:58;;;;;;;22.13;7.33;;;2.00;49.20;;;;;;5035165;28;20429;-61
2022/01/15 06:18:27;;;;;;;30.00;7.83;;;2.00;48.30;;;;;;5034804;28;20444;-61
2022/01/15 06:20:53;;;;;;;31.73;7.63;;;2.00;47.80;;;;;;5035073;28;20495;-60
2022/01/15 06:23:20;;;;;;;75.17;8.90;;;1.90;45.40;;;;;;5034414;28;20510;-60
2022/01/15 06:25:47;;;;;;;47.67;7.37;;;1.90;43.80;;;;;;5034488;28;20445;-58
2022/01/15 06:28:13;;;;;;;74.97;8.83;;;1.80;42.80;;;;;;5034255;28;20481;-59
2022/01/15 06:30:40;;;;;;;34.17;7.77;;;1.80;42.70;;;;;;5034576;28;20464;-60
2022/01/15 06:33:07;;;;;;;54.70;7.13;;;1.80;43.80;;;;;;5034140;28;20453;-59
2022/01/15 06:35:35;;;;;;;32.57;7.77;;;1.80;44.00;;;;;;5034244;28;20453;-61
2022/01/15 06:38:01;;;;;;;38.50;7.77;;;1.80;44.80;;;;;;5034188;28;20943;-61
2022/01/15 06:40:28;;;;;;;34.23;8.23;;;1.80;46.30;;;;;;5033839;28;20954;-61
2022/01/15 06:42:55;;;;;;;16.50;7.00;;;1.90;48.30;;;;;;5034046;28;20507;-61
2022/01/15 06:45:22;;;;;;;37.43;7.90;;;2.00;47.80;;;;;;5033748;28;20453;-61
2022/01/15 06:47:48;;;;;;;50.30;8.83;;;2.00;46.70;;;;;;5033956;28;20463;-61
2022/01/15 06:50:15;;;;;;;35.03;7.93;;;2.00;43.90;;;;;;5033976;28;20567;-61
2022/01/15 06:52:43;;;;;;;25.10;8.00;;;1.90;41.00;;;;;;5033687;28;20457;-61
2022/01/15 06:55:11;;;;;;;26.50;6.30;;;1.90;39.60;;;;;;5034239;28;20449;-61
2022/01/15 06:57:38;;;;;;;24.70;6.77;;;1.90;37.10;;;;;;5033692;28;20449;-61
2022/01/15 07:00:07;;;;;;;41.63;7.07;;;1.80;35.10;;;;;;5033455;28;20461;-61
2022/01/15 07:02:34;;;;;;;34.60;7.87;;;1.70;35.00;;;;;;5033691;28;20445;-61
2022/01/15 07:05:01;;;;;;;56.93;8.33;;;1.70;35.00;;;;;;5033838;28;20524;-57
2022/01/15 07:07:27;;;;;;;75.57;8.50;;;1.80;37.00;;;;;;5033294;28;20483;-61
2022/01/15 07:09:55;;;;;;;55.00;7.93;;;1.70;36.90;;;;;;5033730;28;20500;-60
2022/01/15 07:12:22;;;;;;;48.93;8.00;;;1.70;36.60;;;;;;5033686;28;20560;-61
2022/01/15 07:14:49;;;;;;;123.30;11.17;;;1.60;36.20;;;;;;5033174;28;20461;-58
2022/01/15 07:17:16;;;;;;;33.87;7.93;;;1.60;37.20;;;;;;5033534;28;20479;-56
2022/01/15 07:19:42;;;;;;;30.90;8.60;;;1.40;32.60;;;;;;5032692;28;20990;-61
2022/01/15 07:22:09;;;;;;;38.33;9.20;;;1.30;34.30;;;;;;5033256;28;20467;-61
2022/01/15 07:24:36;;;;;;;27.63;9.17;;;1.40;39.80;;;;;;5033086;28;20954;-61
2022/01/15 07:27:04;;;;;;;30.63;10.03;;;1.40;44.80;;;;;;5033000;28;20943;-59
2022/01/15 07:29:31;;;;;;;22.80;8.87;;;1.50;49.20;;;;;;5032943;28;20489;-61
2022/01/15 07:31:58;;;;;;;28.90;8.07;;;1.50;51.60;;;;;;5033051;28;20464;-61
2022/01/15 07:34:25;;;;;;;33.07;8.97;;;1.50;53.80;;;;;;5032967;28;20560;-61
2022/01/15 07:36:54;;;;;;;27.10;10.17;;;1.50;55.70;;;;;;5032952;28;20455;-62
2022/01/15 07:39:21;;;;;;;32.37;9.20;;;1.50;55.80;;;;;;5032741;28;20451;-61
2022/01/15 07:41:48;;;;;;;31.17;9.73;;;1.40;55.90;;;;;;5032776;28;20452;-61
2022/01/15 07:44:16;;;;;;;24.00;9.00;;;1.40;58.40;;;;;;5033189;28;20479;-62
2022/01/15 07:46:43;;;;;;;29.03;9.80;;;1.40;61.30;;;;;;5033024;28;20463;-61
2022/01/15 07:49:09;;;;;;;22.67;9.10;;;1.50;65.10;;;;;;5033033;28;20535;-62
2022/01/15 07:51:36;;;;;;;24.90;9.40;;;1.60;66.50;;;;;;5032994;28;20456;-59
2022/01/15 07:54:03;;;;;;;27.30;9.93;;;1.50;67.40;;;;;;5032839;28;20456;-62
2022/01/15 07:56:30;;;;;;;24.70;9.87;;;1.50;66.10;;;;;;5032715;28;20460;-61
2022/01/15 07:58:57;;;;;;;23.57;9.83;;;1.50;66.70;;;;;;5032416;28;20497;-62
2022/01/15 08:01:25;;;;;;;22.23;8.83;;;1.50;69.30;;;;;;5032679;28;20503;-61
2022/01/15 08:03:52;;;;;;;22.03;9.33;;;1.50;67.00;;;;;;5032870;28;20503;-64
2022/01/15 08:06:18;;;;;;;30.90;8.97;;;1.40;65.80;;;;;;5032291;28;20513;-60
2022/01/15 08:08:45;;;;;;;31.77;9.27;;;1.40;65.00;;;;;;5031983;28;20480;-61
2022/01/15 08:11:12;;;;;;;27.47;9.87;;;1.30;64.40;;;;;;5031959;28;20997;-61
2022/01/15 08:13:38;;;;;;;29.00;9.63;;;1.30;64.30;;;;;;5032194;28;20815;-61
2022/01/15 08:16:06;;;;;;;28.17;10.70;;;1.20;63.10;;;;;;5031969;28;20510;-60
2022/01/15 08:18:34;;;;;;;28.53;9.77;;;1.20;63.60;;;;;;5032111;28;20886;-62
2022/01/15 08:21:03;;;;;;;35.87;9.80;;;1.30;65.10;;;;;;5031980;28;20468;-61
2022/01/15 08:23:29;;;;;;;32.47;9.80;;;1.10;62.40;;;;;;5031867;28;20548;-61
2022/01/15 08:25:56;;;;;;;27.43;10.03;;;1.10;62.30;;;;;;5031628;28;20517;-60
2022/01/15 08:28:23;;;;;;;26.57;10.23;;;1.20;66.80;;;;;;5032242;28;20452;-61
2022/01/15 08:30:50;;;;;;;37.30;9.63;;;1.20;66.80;;;;;;5032028;28;20560;-60
2022/01/15 08:33:17;;;;;;;23.93;10.47;;;1.10;64.90;;;;;;5032408;28;20459;-62
2022/01/15 08:35:45;;;;;;;24.17;9.40;;;1.00;63.20;;;;;;5032290;28;20460;-62
2022/01/15 08:38:12;;;;;;;26.43;9.90;;;1.10;65.90;;;;;;5031812;28;20456;-61
2022/01/15 08:40:39;;;;;;;24.60;10.63;;;1.00;65.60;;;;;;5031902;28;20470;-61
2022/01/15 08:43:06;;;;;;;23.50;10.60;;;1.10;67.50;;;;;;5032518;28;20453;-61
2022/01/15 08:45:34;;;;;;;39.70;10.80;;;1.20;70.70;;;;;;5033695;28;20459;-61
2022/01/15 08:48:01;;;;;;;22.43;9.87;;;1.40;74.20;;;;;;5034153;28;20453;-61
2022/01/15 08:50:27;;;;;;;29.23;10.63;;;1.40;74.60;;;;;;5031637;28;20926;-61
2022/01/15 08:52:55;;;;;;;24.03;10.43;;;1.40;76.00;;;;;;5031889;28;20464;-60
2022/01/15 08:55:26;;;;;;;29.80;10.87;;;1.40;76.40;;;;;;5031662;28;20452;-61
2022/01/15 08:57:52;;;;;;;38.50;10.63;;;1.40;76.50;;;;;;5031514;28;20459;-61
2022/01/15 09:00:19;;;;;;;29.30;11.60;;;1.50;77.80;;;;;;5031496;28;20465;-61
2022/01/15 09:02:48;;;;;;;33.23;11.37;;;1.50;79.70;;;;;;5031466;28;20448;-61
2022/01/15 09:05:16;;;;;;;32.07;11.17;;;1.60;81.10;;;;;;5031179;28;20499;-61
2022/01/15 09:07:42;;;;;;;29.97;10.53;;;1.60;82.10;;;;;;5031620;28;20454;-61
2022/01/15 09:10:10;;;;;;;29.33;10.60;;;1.70;83.00;;;;;;5031413;28;20492;-61
2022/01/15 09:12:37;;;;;;;30.43;10.47;;;1.80;85.20;;;;;;5031329;28;20453;-61
2022/01/15 09:15:05;;;;;;;30.70;11.70;;;1.80;84.80;;;;;;5031566;28;20466;-61
2022/01/15 09:17:32;;;;;;;24.90;11.10;;;1.70;82.30;;;;;;5031097;28;20522;-60
2022/01/15 09:19:58;;;;;;;31.47;13.00;;;1.70;82.60;;;;;;5031153;28;20854;-61
2022/01/15 09:22:25;;;;;;;32.17;12.03;;;1.90;85.10;;;;;;5031120;28;20456;-61
2022/01/15 09:24:52;;;;;;;31.97;12.27;;;1.90;85.80;;;;;;5031163;28;20449;-61
2022/01/15 09:30:13;;;;;;;40.43;10.07;;;2.00;86.10;;;;;;5031183;28;21150;-61
2022/01/15 09:32:39;;;;;;;48.33;10.63;;;1.70;77.30;;;;;;5030719;28;20453;-61
2022/01/15 09:35:07;;;;;;;59.73;11.17;;;1.60;75.70;;;;;;5031190;28;20452;-61
2022/01/15 09:37:34;;;;;;;48.47;11.00;;;1.60;76.10;;;;;;5031077;28;20449;-61
2022/01/15 09:40:02;;;;;;;31.50;10.57;;;1.50;72.00;;;;;;5030711;28;20461;-59
2022/01/15 09:42:30;;;;;;;33.27;11.00;;;1.40;69.00;;;;;;5031431;28;20471;-60
2022/01/15 09:44:58;;;;;;;47.83;10.93;;;1.40;69.00;;;;;;5034227;28;20471;-61
2022/01/15 09:47:25;;;;;;;21.67;9.50;;;1.50;72.70;;;;;;5034745;28;20503;-61
2022/01/15 09:49:53;;;;;;;26.13;9.70;;;1.60;75.80;;;;;;5034738;28;20492;-61
2022/01/15 09:52:20;;;;;;;27.37;9.90;;;1.50;73.80;;;;;;5034915;28;20483;-60
2022/01/15 09:54:47;;;;;;;30.40;10.03;;;1.50;73.40;;;;;;5034751;28;20479;-61
2022/01/15 09:57:14;;;;;;;33.13;9.20;;;1.60;76.80;;;;;;5034680;28;20814;-62
2022/01/15 09:59:42;;;;;;;35.60;9.90;;;1.70;78.90;;;;;;5035068;28;20472;-61
2022/01/15 10:02:09;;;;;;;25.97;9.97;;;1.50;76.40;;;;;;5035012;28;20526;-61
2022/01/15 10:04:35;;;;;;;23.57;9.13;;;1.60;76.80;;;;;;5035353;28;20482;-60
2022/01/15 10:07:22;;;;;;;23.00;9.00;;;1.50;75.80;;;;;;5034956;28;20460;-62
2022/01/15 10:09:50;;;;;;;24.67;9.67;;;1.60;79.20;;;;;;5034713;28;20492;-61
2022/01/15 10:12:26;;;;;;;29.50;9.90;;;1.60;79.10;;;;;;5034670;28;20461;-61
2022/01/15 10:14:57;;;;;;;21.97;9.97;;;1.50;76.40;;;;;;5034430;28;20468;-61
2022/01/15 10:17:26;;;;;;;25.47;9.57;;;1.60;78.80;;;;;;5032713;28;20514;-61
2022/01/15 10:19:54;;;;;;;19.83;9.03;;;1.70;81.60;;;;;;5034751;28;20975;-61
2022/01/15 10:22:23;;;;;;;23.23;9.47;;;1.70;83.40;;;;;;5034933;28;20455;-61
2022/01/15 10:24:53;;;;;;;29.97;10.80;;;1.70;81.50;;;;;;5034373;28;20460;-61
2022/01/15 10:27:30;;;;;;;22.13;9.93;;;1.80;84.30;;;;;;5034203;28;20454;-59
2022/01/15 10:30:07;;;;;;;37.13;9.63;;;1.60;81.40;;;;;;5033849;28;20488;-61
2022/01/15 10:32:37;;;;;;;26.30;10.53;;;1.70;82.70;;;;;;5034025;28;20452;-61
2022/01/15 10:35:11;;;;;;;34.17;10.10;;;1.60;81.80;;;;;;5034138;28;20457;-61
2022/01/15 10:37:48;;;;;;;27.13;9.20;;;1.60;80.60;;;;;;5034247;28;20452;-61
2022/01/15 10:40:16;;;;;;;39.43;10.53;;;1.60;81.20;;;;;;5033641;28;20993;-61
2022/01/15 10:42:50;;;;;;;25.73;10.03;;;1.60;79.50;;;;;;5034059;28;20854;-61
2022/01/15 10:45:18;;;;;;;25.93;11.40;;;1.70;83.70;;;;;;5033786;28;20453;-61
2022/01/15 10:47:48;;;;;;;39.23;11.00;;;1.90;86.90;;;;;;5033925;28;20830;-61
2022/01/15 10:50:23;;;;;;;24.53;10.93;;;2.00;90.10;;;;;;5033883;28;20511;-62
2022/01/15 10:52:51;;;;;;;33.23;11.63;;;2.20;91.30;;;;;;5033960;28;20527;-62
2022/01/15 10:55:23;;;;;;;24.07;8.97;;;2.30;92.00;;;;;;5032724;28;20455;-62
2022/01/15 10:57:55;;;;;;;33.03;9.53;;;2.00;86.40;;;;;;5033505;28;20449;-62
2022/01/15 11:00:25;;;;;;;22.87;10.00;;;1.90;82.80;;;;;;5033977;28;20469;-61
2022/01/15 11:02:53;;;;;;;33.27;9.43;;;1.90;84.10;;;;;;5033507;28;20511;-61
2022/01/15 11:05:29;;;;;;;34.10;10.20;;;2.10;87.20;;;;;;5033729;28;20453;-62
2022/01/15 11:08:14;;;;;;;27.83;9.03;;;2.10;88.00;;;;;;5033277;28;20471;-62
2022/01/15 11:10:43;;;;;;;32.17;9.30;;;2.30;90.40;;;;;;5032391;28;20564;-62
2022/01/15 11:13:12;;;;;;;22.97;8.63;;;2.30;90.20;;;;;;5035338;28;20494;-61
2022/01/15 11:15:41;;;;;;;20.13;9.33;;;2.30;90.20;;;;;;5033073;28;20463;-62
2022/01/15 11:18:11;;;;;;;29.07;10.27;;;2.40;90.60;;;;;;5032790;28;20456;-60
2022/01/15 11:20:40;;;;;;;20.30;9.67;;;2.50;91.20;;;;;;5029784;28;20465;-64
2022/01/15 11:23:06;;;;;;;20.03;9.60;;;2.60;91.10;;;;;;5030574;28;20476;-62
2022/01/15 11:25:33;;;;;;;21.40;10.67;;;2.60;90.30;;;;;;5032467;28;20832;-59
2022/01/15 11:28:00;;;;;;;22.20;9.80;;;2.60;89.20;;;;;;5033199;28;20548;-61
2022/01/15 11:30:27;;;;;;;22.27;10.77;;;2.50;83.00;;;;;;5032439;28;20531;-59
2022/01/15 11:32:56;;;;;;;20.43;9.83;;;2.60;82.40;;;;;;5032874;28;20884;-61
2022/01/15 11:35:37;;;;;;;20.57;10.40;;;2.30;66.60;;;;;;5032798;28;20947;-60
2022/01/15 11:38:04;;;;;;;31.33;14.03;;;2.40;67.50;;;;;;5032352;28;20480;-59
2022/01/15 11:40:40;;;;;;;18.10;8.93;;;2.40;64.50;;;;;;5032610;28;20836;-61
2022/01/15 11:43:40;;;;;;;16.83;9.03;;;2.50;67.10;;;;;;5033073;28;20481;-60
2022/01/15 11:46:29;;;;;;;20.40;9.13;;;2.60;71.40;;;;;;4990736;28;20450;-60
2022/01/15 11:49:29;;;;;;;17.17;9.63;;;2.70;73.30;;;;;;5029811;28;20457;-61
2022/01/15 11:51:57;;;;;;;18.87;9.17;;;2.80;75.20;;;;;;5032395;28;20523;-61
2022/01/15 11:54:24;;;;;;;20.67;10.73;;;2.80;72.10;;;;;;5032578;28;20453;-61
2022/01/15 11:56:51;;;;;;;21.70;11.40;;;2.90;70.60;;;;;;5032395;28;20939;-60
2022/01/15 11:59:47;;;;;;;20.13;11.13;;;3.00;69.50;;;;;;5032471;28;20959;-61
2022/01/15 12:02:27;;;;;;;18.17;10.33;;;3.00;65.60;;;;;;5032655;28;20297;-61
2022/01/15 12:04:55;;;;;;;23.23;10.90;;;3.10;59.20;;;;;;5032845;28;20441;-61
2022/01/15 12:07:23;;;;;;;21.27;11.67;;;3.20;58.10;;;;;;5031907;28;20476;-61
2022/01/15 12:09:51;;;;;;;19.77;11.23;;;3.20;55.30;;;;;;5032200;28;20461;-60
2022/01/15 12:12:47;;;;;;;25.10;10.73;;;3.30;52.30;;;;;;5032629;28;20210;-61
2022/01/15 12:15:17;;;;;;;23.87;10.47;;;3.00;39.80;;;;;;5032251;28;20625;-61
2022/01/15 12:17:46;;;;;;;22.53;8.97;;;3.20;36.50;;;;;;5031973;28;20272;-61
2022/01/15 12:20:33;;;;;;;15.77;9.73;;;3.20;31.00;;;;;;5032536;28;20465;-61
2022/01/15 12:23:01;;;;;;;13.07;7.80;;;3.00;21.30;;;;;;5031202;28;20484;-61
2022/01/15 12:25:32;;;;;;;18.50;9.57;;;3.00;23.10;;;;;;5032045;28;20452;-60
2022/01/15 12:28:03;;;;;;;13.87;8.53;;;2.90;24.90;;;;;;5031726;28;20449;-61
2022/01/15 12:30:31;;;;;;;15.20;8.80;;;3.00;25.40;;;;;;5031935;28;20501;-60
2022/01/15 12:33:00;;;;;;;16.77;9.20;;;3.20;28.20;;;;;;5031791;28;20452;-60
2022/01/15 12:35:29;;;;;;;12.93;8.70;;;3.20;28.40;;;;;;5031991;28;21150;-61
2022/01/15 12:37:59;;;;;;;14.50;8.43;;;3.20;27.70;;;;;;5031377;28;20454;-61
2022/01/15 12:40:31;;;;;;;14.83;8.47;;;3.20;27.50;;;;;;5031873;28;20481;-60
2022/01/15 12:43:00;;;;;;;13.33;8.23;;;3.20;27.20;;;;;;5031980;28;20206;-61
2022/01/15 12:45:28;;;;;;;16.03;8.90;;;3.10;26.10;;;;;;5032001;28;20510;-60
2022/01/15 12:47:55;;;;;;;13.73;8.03;;;2.90;20.40;;;;;;5031433;28;20448;-60
2022/01/15 12:50:22;;;;;;;15.83;9.03;;;3.10;27.90;;;;;;5031576;28;20550;-60
2022/01/15 12:53:00;;;;;;;13.93;8.60;;;3.30;36.10;;;;;;5031928;28;20449;-61
2022/01/15 12:55:31;;;;;;;14.27;9.20;;;3.00;32.00;;;;;;5031598;28;20453;-59
2022/01/15 12:57:58;;;;;;;28.97;15.07;;;3.00;34.80;;;;;;5027420;28;20448;-60
2022/01/15 13:00:35;;;;;;;17.10;9.77;;;3.00;39.00;;;;;;5030594;28;20919;-65
2022/01/15 13:03:06;;;;;;;15.37;8.90;;;3.20;46.80;;;;;;5028833;28;20455;-61